createdAt,value
2023-02-28T00:00:29.635Z,100.00
2023-02-28T00:01:27.823Z,100.00
2023-02-28T00:02:25.132Z,100.00
2023-02-28T00:03:21.953Z,100.00
2023-02-28T00:04:18.755Z,100.00
2023-02-28T00:05:19.359Z,100.00
2023-02-28T00:06:16.467Z,100.00
2023-02-28T00:07:13.241Z,100.00
2023-02-28T00:08:10.682Z,100.00
2023-02-28T00:09:07.480Z,100.00
2023-02-28T00:10:08.530Z,100.00
2023-02-28T00:11:07.927Z,100.00
2023-02-28T00:12:11.136Z,100.00
2023-02-28T00:13:08.650Z,100.00
2023-02-28T00:14:05.547Z,100.00
2023-02-28T00:15:06.151Z,100.00
2023-02-28T00:16:10.525Z,100.00
2023-02-28T00:17:07.304Z,100.00
2023-02-28T00:18:04.372Z,100.00
2023-02-28T00:19:01.143Z,100.00
2023-02-28T00:20:02.728Z,100.00
2023-02-28T00:21:00.279Z,100.00
2023-02-28T00:21:57.147Z,100.00
2023-02-28T00:22:54.883Z,100.00
2023-02-28T00:23:51.784Z,100.00
2023-02-28T00:24:48.675Z,100.00
2023-02-28T00:25:45.956Z,100.00
2023-02-28T00:26:43.032Z,100.00
2023-02-28T00:27:41.679Z,100.00
2023-02-28T00:28:38.460Z,100.00
2023-02-28T00:29:35.361Z,100.00
2023-02-28T00:30:32.149Z,100.00
2023-02-28T00:31:29.210Z,100.00
2023-02-28T00:32:26.600Z,100.00
2023-02-28T00:33:23.386Z,100.00
2023-02-28T00:34:20.338Z,100.00
2023-02-28T00:35:17.729Z,100.00
2023-02-28T00:36:14.654Z,100.00
2023-02-28T00:37:13.208Z,100.00
2023-02-28T00:38:10.319Z,100.00
2023-02-28T00:39:07.146Z,100.00
2023-02-28T00:40:06.964Z,100.00
2023-02-28T00:41:05.890Z,100.00
2023-02-28T00:42:04.477Z,100.00
2023-02-28T00:43:01.291Z,100.00
2023-02-28T00:43:58.038Z,100.00
2023-02-28T00:44:55.314Z,100.00
2023-02-28T00:45:52.187Z,100.00
2023-02-28T00:46:49.067Z,100.00
2023-02-28T00:47:47.560Z,100.00
2023-02-28T00:48:44.629Z,100.00
2023-02-28T00:49:41.723Z,100.00
2023-02-28T00:50:39.264Z,100.00
2023-02-28T00:51:36.048Z,100.00
2023-02-28T00:52:32.819Z,100.00
2023-02-28T00:53:30.383Z,100.00
2023-02-28T00:54:27.228Z,100.00
2023-02-28T00:55:24.087Z,100.00
2023-02-28T00:56:20.777Z,100.00
2023-02-28T00:57:17.568Z,100.00
2023-02-28T00:58:14.477Z,100.00
2023-02-28T00:59:12.193Z,100.00
2023-02-28T01:00:09.564Z,100.00
2023-02-28T01:01:06.548Z,100.00
2023-02-28T01:02:03.867Z,100.00
2023-02-28T01:03:00.680Z,100.00
2023-02-28T01:03:57.453Z,100.00
2023-02-28T01:04:54.742Z,100.00
2023-02-28T01:05:51.955Z,100.00
2023-02-28T01:06:48.987Z,100.00
2023-02-28T01:07:45.745Z,100.00
2023-02-28T01:08:42.569Z,100.00
2023-02-28T01:09:39.387Z,100.00
2023-02-28T01:10:37.460Z,100.00
2023-02-28T01:11:35.300Z,100.00
2023-02-28T01:12:32.069Z,100.00
2023-02-28T01:13:28.841Z,100.00
2023-02-28T01:14:25.912Z,100.00
2023-02-28T01:15:22.659Z,100.00
2023-02-28T01:16:19.782Z,100.00
2023-02-28T01:17:16.992Z,100.00
2023-02-28T01:18:13.753Z,100.00
2023-02-28T01:19:11.001Z,100.00
2023-02-28T01:20:08.654Z,100.00
2023-02-28T01:21:07.452Z,100.00
2023-02-28T01:22:06.353Z,100.00
2023-02-28T01:23:03.229Z,100.00
2023-02-28T01:24:00.000Z,100.00
2023-02-28T01:24:56.773Z,100.00
2023-02-28T01:25:54.235Z,100.00
2023-02-28T01:26:51.089Z,100.00
2023-02-28T01:27:47.881Z,100.00
2023-02-28T01:28:44.761Z,100.00
2023-02-28T01:29:41.644Z,100.00
2023-02-28T01:30:41.560Z,100.00
2023-02-28T01:31:38.580Z,100.00
2023-02-28T01:32:37.174Z,100.00
2023-02-28T01:33:34.355Z,100.00
2023-02-28T01:34:31.271Z,100.00
2023-02-28T01:35:28.122Z,100.00
2023-02-28T01:36:26.398Z,100.00
2023-02-28T01:37:23.172Z,100.00
2023-02-28T01:38:22.952Z,100.00
2023-02-28T01:39:20.107Z,100.00
2023-02-28T01:40:16.949Z,100.00
2023-02-28T01:41:21.680Z,100.00
2023-02-28T01:42:18.489Z,100.00
2023-02-28T01:43:23.720Z,100.00
2023-02-28T01:44:58.105Z,100.00
2023-02-28T01:45:57.166Z,100.00
2023-02-28T01:46:53.920Z,100.00
2023-02-28T01:47:57.388Z,100.00
2023-02-28T01:49:06.676Z,100.00
2023-02-28T01:50:08.638Z,100.00
2023-02-28T01:51:23.493Z,100.00
2023-02-28T01:52:21.365Z,100.00
2023-02-28T01:53:26.099Z,100.00
2023-02-28T01:54:30.695Z,100.00
2023-02-28T01:55:29.860Z,100.00
2023-02-28T01:56:34.462Z,100.00
2023-02-28T01:57:39.205Z,100.00
2023-02-28T01:58:38.160Z,100.00
2023-02-28T01:59:46.187Z,100.00
2023-02-28T02:00:43.760Z,100.00
2023-02-28T02:01:40.789Z,100.00
2023-02-28T02:02:38.813Z,100.00
2023-02-28T02:03:36.973Z,100.00
2023-02-28T02:04:40.059Z,100.00
2023-02-28T02:05:39.546Z,100.00
2023-02-28T02:06:43.560Z,100.00
2023-02-28T02:07:45.462Z,100.00
2023-02-28T02:08:42.261Z,100.00
2023-02-28T02:09:39.019Z,100.00
2023-02-28T02:11:09.796Z,100.00
2023-02-28T02:12:29.480Z,100.00
2023-02-28T02:13:32.925Z,100.00
2023-02-28T02:14:49.950Z,100.00
2023-02-28T02:16:14.298Z,100.00
2023-02-28T02:17:29.211Z,100.00
2023-02-28T02:18:31.822Z,100.00
2023-02-28T02:19:50.415Z,100.00
2023-02-28T02:21:20.529Z,100.00
2023-02-28T02:22:29.157Z,100.00
2023-02-28T02:24:13.104Z,100.00
2023-02-28T02:25:59.157Z,100.00
2023-02-28T02:27:10.591Z,100.00
2023-02-28T02:28:44.789Z,100.00
2023-02-28T02:29:56.344Z,100.00
2023-02-28T02:31:01.927Z,100.00
2023-02-28T02:32:22.878Z,100.00
2023-02-28T02:33:31.434Z,100.00
2023-02-28T02:34:41.803Z,100.00
2023-02-28T02:36:04.765Z,100.00
2023-02-28T02:37:23.481Z,100.00
2023-02-28T02:38:50.026Z,100.00
2023-02-28T02:39:51.728Z,100.00
2023-02-28T02:41:14.997Z,100.00
2023-02-28T02:42:27.793Z,100.00
2023-02-28T02:43:51.801Z,100.00
2023-02-28T02:44:57.933Z,100.00
2023-02-28T02:46:13.345Z,100.00
2023-02-28T02:47:20.962Z,100.00
2023-02-28T02:48:22.818Z,100.00
2023-02-28T02:49:33.292Z,100.00
2023-02-28T02:50:39.722Z,100.00
2023-02-28T02:51:39.522Z,100.00
2023-02-28T02:52:45.870Z,100.00
2023-02-28T02:54:11.780Z,100.00
2023-02-28T02:55:13.128Z,100.00
2023-02-28T02:56:13.268Z,100.00
2023-02-28T02:57:18.776Z,100.00
2023-02-28T02:58:20.045Z,100.00
2023-02-28T02:59:22.593Z,100.00
2023-02-28T03:00:28.155Z,100.00
2023-02-28T03:01:30.283Z,100.00
2023-02-28T03:02:35.159Z,100.00
2023-02-28T03:03:35.352Z,100.00
2023-02-28T03:04:41.339Z,100.00
2023-02-28T03:05:48.140Z,100.00
2023-02-28T03:06:45.047Z,100.00
2023-02-28T03:07:41.880Z,100.00
2023-02-28T03:08:39.829Z,100.00
2023-02-28T03:09:36.726Z,100.00
2023-02-28T03:10:38.372Z,100.00
2023-02-28T03:11:38.783Z,100.00
2023-02-28T03:12:50.480Z,100.00
2023-02-28T03:14:02.428Z,100.00
2023-02-28T03:15:10.997Z,100.00
2023-02-28T03:16:41.516Z,100.00
2023-02-28T03:17:53.958Z,100.00
2023-02-28T03:19:11.914Z,100.00
2023-02-28T03:20:27.108Z,100.00
2023-02-28T03:21:44.597Z,100.00
2023-02-28T03:22:50.641Z,100.00
2023-02-28T03:24:04.939Z,100.00
2023-02-28T03:25:21.163Z,100.00
2023-02-28T03:26:23.667Z,100.00
2023-02-28T03:27:47.737Z,100.00
2023-02-28T03:28:47.460Z,100.00
2023-02-28T03:30:07.202Z,100.00
2023-02-28T03:31:10.217Z,100.00
2023-02-28T03:32:22.746Z,100.00
2023-02-28T03:33:24.875Z,100.00
2023-02-28T03:34:38.196Z,100.00
2023-02-28T03:35:49.471Z,100.00
2023-02-28T03:36:54.932Z,100.00
2023-02-28T03:38:04.514Z,100.00
2023-02-28T03:39:08.424Z,100.00
2023-02-28T03:40:14.089Z,100.00
2023-02-28T03:41:24.009Z,100.00
2023-02-28T03:42:29.441Z,100.00
2023-02-28T03:43:34.714Z,100.00
2023-02-28T03:44:35.626Z,100.00
2023-02-28T03:45:39.292Z,100.00
2023-02-28T03:46:43.464Z,100.00
2023-02-28T03:48:03.408Z,100.00
2023-02-28T03:49:16.825Z,100.00
2023-02-28T03:50:25.707Z,100.00
2023-02-28T03:51:28.313Z,100.00
2023-02-28T03:52:33.477Z,100.00
2023-02-28T03:53:43.250Z,100.00
2023-02-28T03:54:53.554Z,100.00
2023-02-28T03:55:57.910Z,100.00
2023-02-28T03:57:14.079Z,100.00
2023-02-28T03:58:58.596Z,100.00
2023-02-28T04:00:06.963Z,100.00
2023-02-28T04:01:22.862Z,100.00
2023-02-28T04:02:19.684Z,100.00
2023-02-28T04:03:16.651Z,100.00
2023-02-28T04:04:15.523Z,100.00
2023-02-28T04:05:12.376Z,100.00
2023-02-28T04:06:17.474Z,100.00
2023-02-28T04:07:14.327Z,100.00
2023-02-28T04:08:11.167Z,100.00
2023-02-28T04:10:07.595Z,100.00
2023-02-28T04:11:13.940Z,100.00
2023-02-28T04:12:10.689Z,100.00
2023-02-28T04:13:07.554Z,100.00
2023-02-28T04:14:05.963Z,100.00
2023-02-28T04:15:02.886Z,100.00
2023-02-28T04:15:59.866Z,100.00
2023-02-28T04:16:56.683Z,100.00
2023-02-28T04:17:53.659Z,100.00
2023-02-28T04:18:50.495Z,100.00
2023-02-28T04:19:47.347Z,100.00
2023-02-28T04:20:44.182Z,100.00
2023-02-28T04:21:47.281Z,100.00
2023-02-28T04:22:44.028Z,100.00
2023-02-28T04:23:40.993Z,100.00
2023-02-28T04:24:38.017Z,100.00
2023-02-28T04:25:34.778Z,100.00
2023-02-28T04:26:36.475Z,100.00
2023-02-28T04:27:33.392Z,100.00
2023-02-28T04:28:30.215Z,100.00
2023-02-28T04:29:29.542Z,100.00
2023-02-28T04:30:26.424Z,100.00
2023-02-28T04:31:23.253Z,100.00
2023-02-28T04:32:20.148Z,100.00
2023-02-28T04:33:17.184Z,100.00
2023-02-28T04:34:14.201Z,100.00
2023-02-28T04:35:12.471Z,100.00
2023-02-28T04:36:09.785Z,100.00
2023-02-28T04:37:13.326Z,100.00
2023-02-28T04:38:11.177Z,100.00
2023-02-28T04:39:07.944Z,100.00
2023-02-28T04:40:05.770Z,100.00
2023-02-28T04:41:02.759Z,100.00
2023-02-28T04:41:59.493Z,100.00
2023-02-28T04:42:56.273Z,100.00
2023-02-28T04:43:54.029Z,100.00
2023-02-28T04:44:50.867Z,100.00
2023-02-28T04:45:47.722Z,100.00
2023-02-28T04:46:45.323Z,100.00
2023-02-28T04:47:42.087Z,100.00
2023-02-28T04:48:40.491Z,100.00
2023-02-28T04:49:42.827Z,100.00
2023-02-28T04:50:39.658Z,100.00
2023-02-28T04:51:36.413Z,100.00
2023-02-28T04:52:33.221Z,100.00
2023-02-28T04:53:30.806Z,100.00
2023-02-28T04:54:27.655Z,100.00
2023-02-28T04:55:24.470Z,100.00
2023-02-28T04:56:25.072Z,100.00
2023-02-28T04:57:21.893Z,100.00
2023-02-28T04:58:18.677Z,100.00
2023-02-28T04:59:21.531Z,100.00
2023-02-28T05:00:21.391Z,100.00
2023-02-28T05:01:27.420Z,100.00
2023-02-28T05:02:24.901Z,100.00
2023-02-28T05:03:23.190Z,100.00
2023-02-28T05:04:20.027Z,100.00
2023-02-28T05:05:19.212Z,100.00
2023-02-28T05:06:17.227Z,100.00
2023-02-28T05:07:13.973Z,100.00
2023-02-28T05:08:10.841Z,100.00
2023-02-28T05:09:07.623Z,100.00
2023-02-28T05:10:06.420Z,100.00
2023-02-28T05:11:04.259Z,100.00
2023-02-28T05:12:01.104Z,100.00
2023-02-28T05:13:05.332Z,100.00
2023-02-28T05:14:08.244Z,100.00
2023-02-28T05:15:05.945Z,100.00
2023-02-28T05:16:02.749Z,100.00
2023-02-28T05:16:59.520Z,100.00
2023-02-28T05:17:56.316Z,100.00
2023-02-28T05:18:54.934Z,100.00
2023-02-28T05:19:51.760Z,100.00
2023-02-28T05:20:48.899Z,100.00
2023-02-28T05:21:56.312Z,100.00
2023-02-28T05:22:53.674Z,100.00
2023-02-28T05:23:50.415Z,100.00
2023-02-28T05:24:47.410Z,100.00
2023-02-28T05:25:44.282Z,100.00
2023-02-28T05:26:43.696Z,100.00
2023-02-28T05:27:40.456Z,100.00
2023-02-28T05:28:37.168Z,100.00
2023-02-28T05:29:34.142Z,100.00
2023-02-28T05:30:32.600Z,100.00
2023-02-28T05:31:29.753Z,100.00
2023-02-28T05:32:26.556Z,100.00
2023-02-28T05:33:23.404Z,100.00
2023-02-28T05:34:20.288Z,100.00
2023-02-28T05:35:17.163Z,100.00
2023-02-28T05:36:14.583Z,100.00
2023-02-28T05:37:16.614Z,100.00
2023-02-28T05:38:13.413Z,100.00
2023-02-28T05:39:13.757Z,100.00
2023-02-28T05:40:11.488Z,100.00
2023-02-28T05:41:12.641Z,100.00
2023-02-28T05:42:10.237Z,100.00
2023-02-28T05:43:07.071Z,100.00
2023-02-28T05:44:03.927Z,100.00
2023-02-28T05:45:00.638Z,100.00
2023-02-28T05:45:57.447Z,100.00
2023-02-28T05:46:54.437Z,100.00
2023-02-28T05:47:54.877Z,100.00
2023-02-28T05:48:51.804Z,100.00
2023-02-28T05:49:48.636Z,100.00
2023-02-28T05:50:47.093Z,100.00
2023-02-28T05:51:43.860Z,100.00
2023-02-28T05:52:40.669Z,100.00
2023-02-28T05:53:37.728Z,100.00
2023-02-28T05:54:34.555Z,100.00
2023-02-28T05:55:31.402Z,100.00
2023-02-28T05:56:28.456Z,100.00
2023-02-28T05:57:25.641Z,100.00
2023-02-28T05:58:22.797Z,100.00
2023-02-28T05:59:19.615Z,100.00
2023-02-28T06:00:18.757Z,100.00
2023-02-28T06:01:42.978Z,100.00
2023-02-28T06:02:43.810Z,100.00
2023-02-28T06:03:40.880Z,100.00
2023-02-28T06:04:37.753Z,100.00
2023-02-28T06:05:34.791Z,100.00
2023-02-28T06:06:31.836Z,100.00
2023-02-28T06:07:28.654Z,100.00
2023-02-28T06:08:25.416Z,100.00
2023-02-28T06:09:25.055Z,100.00
2023-02-28T06:10:21.901Z,100.00
2023-02-28T06:11:20.924Z,100.00
2023-02-28T06:12:18.590Z,100.00
2023-02-28T06:13:16.304Z,100.00
2023-02-28T06:14:18.967Z,100.00
2023-02-28T06:15:16.934Z,100.00
2023-02-28T06:16:14.031Z,100.00
2023-02-28T06:17:11.009Z,100.00
2023-02-28T06:18:07.871Z,100.00
2023-02-28T06:19:05.649Z,100.00
2023-02-28T06:20:02.367Z,100.00
2023-02-28T06:20:59.406Z,100.00
2023-02-28T06:21:58.016Z,100.00
2023-02-28T06:22:56.973Z,100.00
2023-02-28T06:23:54.081Z,100.00
2023-02-28T06:24:50.966Z,100.00
2023-02-28T06:25:48.123Z,100.00
2023-02-28T06:26:47.103Z,100.00
2023-02-28T06:27:44.622Z,100.00
2023-02-28T06:28:41.641Z,100.00
2023-02-28T06:29:40.849Z,100.00
2023-02-28T06:30:38.881Z,100.00
2023-02-28T06:31:35.691Z,100.00
2023-02-28T06:32:32.526Z,100.00
2023-02-28T06:33:29.275Z,100.00
2023-02-28T06:34:26.123Z,100.00
2023-02-28T06:35:23.358Z,100.00
2023-02-28T06:36:20.935Z,100.00
2023-02-28T06:37:18.525Z,100.00
2023-02-28T06:38:15.271Z,100.00
2023-02-28T06:39:12.065Z,100.00
2023-02-28T06:40:10.057Z,100.00
2023-02-28T06:41:07.705Z,100.00
2023-02-28T06:42:05.152Z,100.00
2023-02-28T06:43:01.897Z,100.00
2023-02-28T06:43:58.730Z,100.00
2023-02-28T06:44:58.574Z,100.00
2023-02-28T06:45:57.260Z,100.00
2023-02-28T06:46:54.442Z,100.00
2023-02-28T06:47:53.209Z,100.00
2023-02-28T06:48:50.242Z,100.00
2023-02-28T06:49:47.037Z,100.00
2023-02-28T06:50:43.808Z,100.00
2023-02-28T06:51:44.852Z,100.00
2023-02-28T06:52:41.564Z,100.00
2023-02-28T06:53:38.618Z,100.00
2023-02-28T06:54:35.422Z,100.00
2023-02-28T06:55:32.548Z,100.00
2023-02-28T06:56:29.837Z,100.00
2023-02-28T06:57:34.473Z,100.00
2023-02-28T06:58:31.404Z,100.00
2023-02-28T06:59:28.181Z,100.00
2023-02-28T07:00:26.028Z,100.00
2023-02-28T07:01:24.854Z,100.00
2023-02-28T07:02:21.670Z,100.00
2023-02-28T07:03:19.409Z,100.00
2023-02-28T07:04:16.165Z,100.00
2023-02-28T07:05:12.994Z,100.00
2023-02-28T07:06:09.828Z,100.00
2023-02-28T07:07:06.577Z,100.00
2023-02-28T07:08:04.227Z,100.00
2023-02-28T07:09:01.433Z,100.00
2023-02-28T07:09:58.210Z,100.00
2023-02-28T07:10:56.561Z,100.00
2023-02-28T07:11:53.365Z,100.00
2023-02-28T07:12:50.118Z,100.00
2023-02-28T07:13:48.560Z,100.00
2023-02-28T07:14:45.389Z,100.00
2023-02-28T07:15:44.174Z,100.00
2023-02-28T07:16:42.402Z,100.00
2023-02-28T07:17:39.283Z,100.00
2023-02-28T07:18:36.848Z,100.00
2023-02-28T07:19:33.693Z,100.00
2023-02-28T07:20:31.618Z,100.00
2023-02-28T07:21:29.073Z,100.00
2023-02-28T07:22:26.197Z,100.00
2023-02-28T07:23:24.056Z,100.00
2023-02-28T07:24:20.866Z,100.00
2023-02-28T07:25:17.755Z,100.00
2023-02-28T07:26:18.075Z,100.00
2023-02-28T07:27:24.795Z,100.00
2023-02-28T07:28:47.747Z,100.00
2023-02-28T07:29:49.157Z,100.00
2023-02-28T07:30:45.993Z,100.00
2023-02-28T07:31:42.803Z,100.00
2023-02-28T07:32:39.671Z,100.00
2023-02-28T07:33:37.020Z,100.00
2023-02-28T07:34:33.801Z,100.00
2023-02-28T07:35:31.737Z,100.00
2023-02-28T07:36:28.570Z,100.00
2023-02-28T07:37:25.358Z,100.00
2023-02-28T07:38:22.096Z,100.00
2023-02-28T07:39:19.210Z,100.00
2023-02-28T07:40:16.417Z,100.00
2023-02-28T07:41:13.693Z,100.00
2023-02-28T07:42:12.872Z,100.00
2023-02-28T07:43:09.665Z,100.00
2023-02-28T07:44:06.632Z,100.00
2023-02-28T07:45:04.004Z,100.00
2023-02-28T07:46:09.983Z,100.00
2023-02-28T07:47:12.733Z,100.00
2023-02-28T07:48:11.074Z,100.00
2023-02-28T07:49:08.013Z,100.00
2023-02-28T07:50:05.174Z,100.00
2023-02-28T07:51:02.522Z,100.00
2023-02-28T07:51:59.280Z,100.00
2023-02-28T07:52:56.276Z,100.00
2023-02-28T07:53:53.128Z,100.00
2023-02-28T07:54:50.153Z,100.00
2023-02-28T07:55:46.945Z,100.00
2023-02-28T07:56:43.762Z,100.00
2023-02-28T07:57:41.878Z,100.00
2023-02-28T07:58:38.853Z,100.00
2023-02-28T07:59:35.689Z,100.00
2023-02-28T08:00:33.138Z,100.00
2023-02-28T08:01:30.302Z,100.00
2023-02-28T08:02:27.312Z,100.00
2023-02-28T08:03:24.672Z,100.00
2023-02-28T08:04:24.245Z,100.00
2023-02-28T08:05:22.335Z,100.00
2023-02-28T08:06:23.864Z,100.00
2023-02-28T08:07:20.663Z,100.00
2023-02-28T08:08:17.962Z,100.00
2023-02-28T08:09:15.600Z,100.00
2023-02-28T08:10:12.374Z,100.00
2023-02-28T08:11:09.144Z,100.00
2023-02-28T08:12:06.399Z,100.00
2023-02-28T08:13:03.762Z,100.00
2023-02-28T08:14:00.555Z,100.00
2023-02-28T08:14:57.472Z,100.00
2023-02-28T08:15:56.008Z,100.00
2023-02-28T08:16:52.785Z,100.00
2023-02-28T08:17:49.523Z,100.00
2023-02-28T08:18:46.513Z,100.00
2023-02-28T08:19:45.889Z,100.00
2023-02-28T08:20:42.748Z,100.00
2023-02-28T08:21:39.522Z,100.00
2023-02-28T08:22:38.813Z,100.00
2023-02-28T08:23:36.264Z,100.00
2023-02-28T08:24:34.400Z,100.00
2023-02-28T08:25:31.301Z,100.00
2023-02-28T08:26:28.140Z,100.00
2023-02-28T08:27:25.114Z,100.00
2023-02-28T08:28:27.140Z,100.00
2023-02-28T08:29:24.399Z,100.00
2023-02-28T08:30:24.217Z,100.00
2023-02-28T08:31:24.098Z,100.00
2023-02-28T08:32:30.176Z,100.00
2023-02-28T08:33:33.911Z,100.00
2023-02-28T08:34:30.729Z,100.00
2023-02-28T08:35:27.571Z,100.00
2023-02-28T08:36:24.886Z,100.00
2023-02-28T08:37:21.692Z,100.00
2023-02-28T08:38:18.445Z,100.00
2023-02-28T08:39:18.345Z,100.00
2023-02-28T08:40:19.168Z,100.00
2023-02-28T08:41:16.262Z,100.00
2023-02-28T08:42:13.385Z,100.00
2023-02-28T08:43:10.136Z,100.00
2023-02-28T08:44:06.958Z,100.00
2023-02-28T08:45:04.280Z,100.00
2023-02-28T08:46:01.326Z,100.00
2023-02-28T08:46:58.103Z,100.00
2023-02-28T08:47:58.043Z,100.00
2023-02-28T08:49:03.991Z,100.00
2023-02-28T08:50:00.834Z,100.00
2023-02-28T08:51:06.720Z,100.00
2023-02-28T08:52:04.705Z,100.00
2023-02-28T08:53:01.548Z,100.00
2023-02-28T08:54:02.048Z,100.00
2023-02-28T08:54:58.869Z,100.00
2023-02-28T08:56:05.664Z,100.00
2023-02-28T08:57:03.559Z,100.00
2023-02-28T08:58:02.191Z,100.00
2023-02-28T08:58:59.029Z,100.00
2023-02-28T08:59:55.867Z,100.00
2023-02-28T09:00:52.929Z,100.00
2023-02-28T09:01:49.826Z,100.00
2023-02-28T09:02:46.831Z,100.00
2023-02-28T09:03:45.450Z,100.00
2023-02-28T09:04:42.828Z,100.00
2023-02-28T09:05:39.690Z,100.00
2023-02-28T09:06:36.566Z,100.00
2023-02-28T09:07:33.379Z,100.00
2023-02-28T09:08:33.648Z,100.00
2023-02-28T09:09:30.408Z,100.00
2023-02-28T09:10:27.215Z,100.00
2023-02-28T09:11:24.070Z,100.00
2023-02-28T09:12:22.997Z,100.00
2023-02-28T09:13:20.068Z,100.00
2023-02-28T09:14:18.513Z,100.00
2023-02-28T09:15:15.348Z,100.00
2023-02-28T09:16:16.017Z,100.00
2023-02-28T09:17:12.982Z,100.00
2023-02-28T09:18:09.910Z,100.00
2023-02-28T09:19:06.893Z,100.00
2023-02-28T09:20:03.899Z,100.00
2023-02-28T09:21:03.442Z,100.00
2023-02-28T09:22:00.200Z,100.00
2023-02-28T09:22:57.118Z,100.00
2023-02-28T09:23:54.343Z,100.00
2023-02-28T09:24:51.161Z,100.00
2023-02-28T09:25:50.093Z,100.00
2023-02-28T09:26:56.809Z,100.00
2023-02-28T09:28:01.235Z,100.00
2023-02-28T09:28:59.953Z,100.00
2023-02-28T09:29:56.961Z,100.00
2023-02-28T09:30:58.448Z,100.00
2023-02-28T09:31:59.814Z,100.00
2023-02-28T09:32:56.916Z,100.00
2023-02-28T09:33:56.292Z,100.00
2023-02-28T09:34:59.253Z,100.00
2023-02-28T09:36:01.959Z,100.00
2023-02-28T09:37:07.783Z,100.00
2023-02-28T09:38:05.795Z,100.00
2023-02-28T09:39:02.677Z,100.00
2023-02-28T09:39:59.556Z,100.00
2023-02-28T09:41:03.589Z,100.00
2023-02-28T09:42:00.585Z,100.00
2023-02-28T09:43:00.701Z,100.00
2023-02-28T09:44:05.361Z,100.00
2023-02-28T09:45:20.933Z,100.00
2023-02-28T09:46:43.310Z,100.00
2023-02-28T09:47:46.409Z,100.00
2023-02-28T09:48:49.289Z,100.00
2023-02-28T09:49:49.052Z,100.00
2023-02-28T09:51:00.596Z,100.00
2023-02-28T09:52:10.097Z,100.00
2023-02-28T09:53:24.577Z,100.00
2023-02-28T09:54:28.765Z,100.00
2023-02-28T09:55:51.086Z,100.00
2023-02-28T09:56:57.615Z,100.00
2023-02-28T09:57:57.764Z,100.00
2023-02-28T09:59:26.718Z,100.00
2023-02-28T10:00:40.437Z,100.00
2023-02-28T10:01:55.806Z,100.00
2023-02-28T10:03:19.927Z,100.00
2023-02-28T10:04:46.285Z,100.00
2023-02-28T10:05:54.979Z,100.00
2023-02-28T10:06:53.937Z,100.00
2023-02-28T10:08:19.551Z,100.00
2023-02-28T10:09:25.969Z,100.00
2023-02-28T10:10:47.256Z,100.00
2023-02-28T10:12:48.303Z,100.00
2023-02-28T10:14:03.663Z,100.00
2023-02-28T10:15:03.515Z,100.00
2023-02-28T10:16:07.682Z,100.00
2023-02-28T10:17:23.182Z,100.00
2023-02-28T10:18:45.306Z,100.00
2023-02-28T10:19:50.763Z,100.00
2023-02-28T10:20:50.984Z,100.00
2023-02-28T10:21:57.866Z,100.00
2023-02-28T10:23:08.688Z,100.00
2023-02-28T10:24:23.662Z,100.00
2023-02-28T10:25:24.801Z,100.00
2023-02-28T10:26:24.485Z,100.00
2023-02-28T10:27:24.133Z,100.00
2023-02-28T10:28:21.159Z,100.00
2023-02-28T10:29:18.061Z,100.00
2023-02-28T10:30:15.065Z,100.00
2023-02-28T10:31:20.642Z,100.00
2023-02-28T10:32:23.950Z,100.00
2023-02-28T10:33:31.886Z,100.00
2023-02-28T10:34:28.668Z,100.00
2023-02-28T10:35:27.430Z,100.00
2023-02-28T10:36:24.856Z,100.00
2023-02-28T10:37:22.376Z,100.00
2023-02-28T10:38:27.159Z,100.00
2023-02-28T10:39:43.868Z,100.00
2023-02-28T10:40:40.759Z,100.00
2023-02-28T10:41:44.140Z,100.00
2023-02-28T10:42:41.197Z,100.00
2023-02-28T10:43:41.041Z,100.00
2023-02-28T10:44:37.906Z,100.00
2023-02-28T10:45:38.218Z,100.00
2023-02-28T10:46:35.621Z,100.00
2023-02-28T10:47:36.906Z,100.00
2023-02-28T10:48:49.006Z,100.00
2023-02-28T10:49:53.535Z,100.00
2023-02-28T10:50:53.205Z,100.00
2023-02-28T10:51:55.484Z,100.00
2023-02-28T10:52:52.345Z,100.00
2023-02-28T10:54:01.429Z,100.00
2023-02-28T10:55:20.681Z,100.00
2023-02-28T10:56:19.081Z,100.00
2023-02-28T10:57:20.106Z,100.00
2023-02-28T10:58:30.339Z,100.00
2023-02-28T10:59:32.261Z,100.00
2023-02-28T11:00:35.809Z,100.00
2023-02-28T11:01:57.719Z,100.00
2023-02-28T11:02:54.520Z,100.00
2023-02-28T11:03:53.480Z,100.00
2023-02-28T11:04:50.388Z,100.00
2023-02-28T11:05:49.897Z,100.00
2023-02-28T11:06:52.372Z,100.00
2023-02-28T11:08:00.304Z,100.00
2023-02-28T11:09:01.386Z,100.00
2023-02-28T11:09:59.701Z,100.00
2023-02-28T11:11:02.215Z,100.00
2023-02-28T11:12:00.350Z,100.00
2023-02-28T11:13:00.878Z,100.00
2023-02-28T11:14:05.894Z,100.00
2023-02-28T11:15:07.963Z,100.00
2023-02-28T11:16:11.687Z,100.00
2023-02-28T11:17:33.331Z,100.00
2023-02-28T11:18:50.298Z,100.00
2023-02-28T11:19:53.343Z,100.00
2023-02-28T11:20:54.075Z,100.00
2023-02-28T11:22:08.013Z,100.00
2023-02-28T11:23:12.607Z,100.00
2023-02-28T11:24:31.065Z,100.00
2023-02-28T11:25:38.948Z,100.00
2023-02-28T11:26:46.964Z,100.00
2023-02-28T11:27:50.386Z,100.00
2023-02-28T11:29:09.810Z,100.00
2023-02-28T11:30:32.167Z,100.00
2023-02-28T11:31:34.080Z,100.00
2023-02-28T11:32:32.558Z,100.00
2023-02-28T11:33:51.860Z,100.00
2023-02-28T11:35:04.611Z,100.00
2023-02-28T11:36:32.606Z,100.00
2023-02-28T11:37:32.541Z,100.00
2023-02-28T11:38:30.005Z,100.00
2023-02-28T11:39:28.288Z,100.00
2023-02-28T11:40:48.433Z,100.00
2023-02-28T11:41:54.379Z,100.00
2023-02-28T11:42:56.904Z,100.00
2023-02-28T11:44:20.979Z,100.00
2023-02-28T11:45:24.149Z,100.00
2023-02-28T11:46:42.983Z,100.00
2023-02-28T11:48:06.275Z,100.00
2023-02-28T11:49:26.013Z,100.00
2023-02-28T11:50:50.319Z,100.00
2023-02-28T11:52:13.290Z,100.00
2023-02-28T11:53:16.318Z,100.00
2023-02-28T11:54:26.441Z,100.00
2023-02-28T11:55:36.112Z,100.00
2023-02-28T11:56:33.515Z,100.00
2023-02-28T11:57:50.516Z,100.00
2023-02-28T11:59:04.566Z,100.00
2023-02-28T12:00:30.533Z,100.00
2023-02-28T12:01:49.082Z,100.00
2023-02-28T12:03:01.390Z,100.00
2023-02-28T12:04:07.912Z,100.00
2023-02-28T12:05:13.945Z,100.00
2023-02-28T12:06:30.706Z,100.00
2023-02-28T12:07:30.635Z,100.00
2023-02-28T12:09:01.453Z,100.00
2023-02-28T12:09:58.323Z,100.00
2023-02-28T12:11:33.413Z,100.00
2023-02-28T12:12:38.850Z,100.00
2023-02-28T12:13:47.048Z,100.00
2023-02-28T12:15:03.577Z,100.00
2023-02-28T12:16:27.053Z,100.00
2023-02-28T12:18:00.283Z,100.00
2023-02-28T12:19:06.145Z,100.00
2023-02-28T12:20:26.391Z,100.00
2023-02-28T12:21:47.339Z,100.00
2023-02-28T12:22:56.201Z,100.00
2023-02-28T12:24:07.497Z,100.00
2023-02-28T12:25:07.390Z,100.00
2023-02-28T12:26:40.419Z,100.00
2023-02-28T12:27:45.549Z,100.00
2023-02-28T12:29:25.235Z,98.77
2023-02-28T12:30:36.655Z,99.17
2023-02-28T12:31:42.111Z,98.63
2023-02-28T12:32:59.473Z,97.68
2023-02-28T12:34:13.242Z,96.05
2023-02-28T12:35:09.972Z,96.82
2023-02-28T12:36:13.291Z,96.58
2023-02-28T12:37:20.948Z,96.80
2023-02-28T12:38:27.366Z,95.15
2023-02-28T12:39:49.843Z,94.73
2023-02-28T12:41:04.132Z,95.19
2023-02-28T12:42:08.805Z,94.54
2023-02-28T12:43:10.670Z,94.21
2023-02-28T12:44:16.826Z,93.55
2023-02-28T12:45:20.720Z,93.56
2023-02-28T12:46:34.738Z,95.45
2023-02-28T12:47:34.317Z,97.08
2023-02-28T12:49:00.320Z,99.44
2023-02-28T12:50:09.132Z,100.00
2023-02-28T12:51:09.840Z,100.00
2023-02-28T12:52:12.082Z,100.00
2023-02-28T12:53:38.921Z,100.00
2023-02-28T12:55:02.203Z,100.00
2023-02-28T12:56:20.119Z,100.00
2023-02-28T12:57:33.040Z,98.64
2023-02-28T12:58:29.862Z,99.01
2023-02-28T12:59:51.645Z,97.51
2023-02-28T13:01:06.730Z,97.81
2023-02-28T13:02:18.689Z,100.00